sensor_id;sensor_type;location;lat;lon;timestamp;P1;durP1;ratioP1;P2;durP2;ratioP2
4756;SDS011;2392;52.578;13.426;2022-12-24T00:00:03;7.83;;;5.80;;
4756;SDS011;2392;52.578;13.426;2022-12-24T00:02:32;6.73;;;6.00;;
4756;SDS011;2392;52.578;13.426;2022-12-24T00:04:59;6.87;;;5.83;;
4756;SDS011;2392;52.578;13.426;2022-12-24T00:07:26;10.20;;;7.03;;
4756;SDS011;2392;52.578;13.426;2022-12-24T00:09:53;9.37;;;5.90;;
4756;SDS011;2392;52.578;13.426;2022-12-24T00:12:20;8.07;;;5.73;;
4756;SDS011;2392;52.578;13.426;2022-12-24T00:14:48;6.87;;;6.17;;
4756;SDS011;2392;52.578;13.426;2022-12-24T00:17:15;12.67;;;5.67;;
4756;SDS011;2392;52.578;13.426;2022-12-24T00:19:42;7.40;;;5.67;;
4756;SDS011;2392;52.578;13.426;2022-12-24T00:22:09;9.90;;;6.67;;
4756;SDS011;2392;52.578;13.426;2022-12-24T00:24:36;8.27;;;6.50;;
4756;SDS011;2392;52.578;13.426;2022-12-24T00:27:03;6.67;;;6.00;;
4756;SDS011;2392;52.578;13.426;2022-12-24T00:29:30;5.73;;;5.10;;
4756;SDS011;2392;52.578;13.426;2022-12-24T00:31:59;7.87;;;6.00;;
4756;SDS011;2392;52.578;13.426;2022-12-24T00:34:26;7.37;;;5.93;;
4756;SDS011;2392;52.578;13.426;2022-12-24T00:36:53;9.73;;;6.10;;
4756;SDS011;2392;52.578;13.426;2022-12-24T00:39:21;9.33;;;6.20;;
4756;SDS011;2392;52.578;13.426;2022-12-24T00:41:48;8.27;;;6.00;;
4756;SDS011;2392;52.578;13.426;2022-12-24T00:44:15;6.87;;;6.17;;
4756;SDS011;2392;52.578;13.426;2022-12-24T00:46:42;6.27;;;5.33;;
4756;SDS011;2392;52.578;13.426;2022-12-24T00:49:11;6.13;;;5.50;;
4756;SDS011;2392;52.578;13.426;2022-12-24T00:51:38;10.03;;;7.07;;
4756;SDS011;2392;52.578;13.426;2022-12-24T00:54:05;9.60;;;6.70;;
4756;SDS011;2392;52.578;13.426;2022-12-24T00:56:33;8.77;;;6.30;;
4756;SDS011;2392;52.578;13.426;2022-12-24T00:59:00;9.77;;;6.80;;
4756;SDS011;2392;52.578;13.426;2022-12-24T01:01:27;11.90;;;6.70;;
4756;SDS011;2392;52.578;13.426;2022-12-24T01:03:54;9.97;;;7.00;;
4756;SDS011;2392;52.578;13.426;2022-12-24T01:06:43;9.90;;;6.00;;
4756;SDS011;2392;52.578;13.426;2022-12-24T01:09:09;7.30;;;6.20;;
4756;SDS011;2392;52.578;13.426;2022-12-24T01:11:36;10.80;;;6.70;;
4756;SDS011;2392;52.578;13.426;2022-12-24T01:14:03;7.80;;;6.37;;
4756;SDS011;2392;52.578;13.426;2022-12-24T01:16:30;7.07;;;6.37;;
4756;SDS011;2392;52.578;13.426;2022-12-24T01:18:57;9.17;;;6.67;;
4756;SDS011;2392;52.578;13.426;2022-12-24T01:21:24;10.40;;;7.33;;
4756;SDS011;2392;52.578;13.426;2022-12-24T01:23:52;10.30;;;7.70;;
4756;SDS011;2392;52.578;13.426;2022-12-24T01:26:19;11.40;;;7.17;;
4756;SDS011;2392;52.578;13.426;2022-12-24T01:28:46;9.83;;;8.13;;
4756;SDS011;2392;52.578;13.426;2022-12-24T01:31:14;11.90;;;7.30;;
4756;SDS011;2392;52.578;13.426;2022-12-24T01:33:44;9.47;;;7.50;;
4756;SDS011;2392;52.578;13.426;2022-12-24T01:36:12;8.97;;;7.63;;
4756;SDS011;2392;52.578;13.426;2022-12-24T01:38:40;11.23;;;8.40;;
4756;SDS011;2392;52.578;13.426;2022-12-24T01:41:13;9.30;;;7.50;;
4756;SDS011;2392;52.578;13.426;2022-12-24T01:46:49;9.17;;;7.50;;
4756;SDS011;2392;52.578;13.426;2022-12-24T01:49:18;12.13;;;7.50;;
4756;SDS011;2392;52.578;13.426;2022-12-24T01:51:46;13.00;;;8.67;;
4756;SDS011;2392;52.578;13.426;2022-12-24T01:54:17;9.87;;;7.70;;
4756;SDS011;2392;52.578;13.426;2022-12-24T01:56:49;11.00;;;7.80;;
4756;SDS011;2392;52.578;13.426;2022-12-24T01:59:20;10.80;;;7.83;;
4756;SDS011;2392;52.578;13.426;2022-12-24T02:01:48;11.20;;;8.20;;
4756;SDS011;2392;52.578;13.426;2022-12-24T02:04:16;14.30;;;8.43;;
4756;SDS011;2392;52.578;13.426;2022-12-24T02:06:51;12.10;;;8.07;;
4756;SDS011;2392;52.578;13.426;2022-12-24T02:09:18;9.30;;;7.43;;
4756;SDS011;2392;52.578;13.426;2022-12-24T02:11:45;11.10;;;9.00;;
4756;SDS011;2392;52.578;13.426;2022-12-24T02:14:14;9.60;;;8.60;;
4756;SDS011;2392;52.578;13.426;2022-12-24T02:16:44;12.50;;;8.00;;
4756;SDS011;2392;52.578;13.426;2022-12-24T02:19:25;10.37;;;8.43;;
4756;SDS011;2392;52.578;13.426;2022-12-24T02:22:15;9.80;;;8.33;;
4756;SDS011;2392;52.578;13.426;2022-12-24T02:24:52;11.67;;;7.53;;
4756;SDS011;2392;52.578;13.426;2022-12-24T02:27:42;12.43;;;8.97;;
4756;SDS011;2392;52.578;13.426;2022-12-24T02:30:21;14.70;;;8.50;;
4756;SDS011;2392;52.578;13.426;2022-12-24T02:32:57;12.10;;;9.00;;
4756;SDS011;2392;52.578;13.426;2022-12-24T02:35:36;11.00;;;7.80;;
4756;SDS011;2392;52.578;13.426;2022-12-24T02:38:10;11.00;;;8.30;;
4756;SDS011;2392;52.578;13.426;2022-12-24T02:40:41;12.60;;;8.17;;
4756;SDS011;2392;52.578;13.426;2022-12-24T02:43:16;10.50;;;7.87;;
4756;SDS011;2392;52.578;13.426;2022-12-24T02:45:49;11.37;;;7.90;;
4756;SDS011;2392;52.578;13.426;2022-12-24T02:48:19;12.77;;;8.80;;
4756;SDS011;2392;52.578;13.426;2022-12-24T02:50:55;13.00;;;9.23;;
4756;SDS011;2392;52.578;13.426;2022-12-24T02:53:23;9.10;;;7.47;;
4756;SDS011;2392;52.578;13.426;2022-12-24T02:55:54;11.23;;;8.67;;
4756;SDS011;2392;52.578;13.426;2022-12-24T02:58:32;9.67;;;7.73;;
4756;SDS011;2392;52.578;13.426;2022-12-24T03:01:11;13.30;;;8.60;;
4756;SDS011;2392;52.578;13.426;2022-12-24T03:03:47;11.10;;;8.77;;
4756;SDS011;2392;52.578;13.426;2022-12-24T03:06:28;11.93;;;8.37;;
4756;SDS011;2392;52.578;13.426;2022-12-24T03:09:05;10.63;;;8.63;;
4756;SDS011;2392;52.578;13.426;2022-12-24T03:11:40;10.83;;;7.60;;
4756;SDS011;2392;52.578;13.426;2022-12-24T03:14:13;13.43;;;9.63;;
4756;SDS011;2392;52.578;13.426;2022-12-24T03:16:43;12.57;;;9.00;;
4756;SDS011;2392;52.578;13.426;2022-12-24T03:19:10;11.60;;;8.90;;
4756;SDS011;2392;52.578;13.426;2022-12-24T03:21:39;13.60;;;8.80;;
4756;SDS011;2392;52.578;13.426;2022-12-24T03:24:08;12.40;;;9.43;;
4756;SDS011;2392;52.578;13.426;2022-12-24T03:26:35;11.00;;;8.70;;
4756;SDS011;2392;52.578;13.426;2022-12-24T03:29:04;11.33;;;7.97;;
4756;SDS011;2392;52.578;13.426;2022-12-24T03:31:43;11.27;;;9.30;;
4756;SDS011;2392;52.578;13.426;2022-12-24T03:34:12;9.73;;;8.30;;
4756;SDS011;2392;52.578;13.426;2022-12-24T03:36:40;14.80;;;9.30;;
4756;SDS011;2392;52.578;13.426;2022-12-24T03:39:08;13.67;;;9.77;;
4756;SDS011;2392;52.578;13.426;2022-12-24T03:41:35;12.87;;;8.77;;
4756;SDS011;2392;52.578;13.426;2022-12-24T03:44:02;11.70;;;9.10;;
4756;SDS011;2392;52.578;13.426;2022-12-24T03:46:29;10.00;;;8.83;;
4756;SDS011;2392;52.578;13.426;2022-12-24T03:48:57;10.20;;;8.30;;
4756;SDS011;2392;52.578;13.426;2022-12-24T03:51:24;11.80;;;8.50;;
4756;SDS011;2392;52.578;13.426;2022-12-24T03:53:52;9.53;;;7.97;;
4756;SDS011;2392;52.578;13.426;2022-12-24T03:56:19;12.63;;;9.33;;
4756;SDS011;2392;52.578;13.426;2022-12-24T03:58:47;12.27;;;8.83;;
4756;SDS011;2392;52.578;13.426;2022-12-24T04:01:14;10.37;;;8.20;;
4756;SDS011;2392;52.578;13.426;2022-12-24T04:03:42;10.97;;;8.53;;
4756;SDS011;2392;52.578;13.426;2022-12-24T04:06:11;11.90;;;9.07;;
4756;SDS011;2392;52.578;13.426;2022-12-24T04:08:40;10.90;;;8.53;;
4756;SDS011;2392;52.578;13.426;2022-12-24T04:11:08;9.23;;;8.10;;
4756;SDS011;2392;52.578;13.426;2022-12-24T04:13:35;9.30;;;7.50;;
4756;SDS011;2392;52.578;13.426;2022-12-24T04:16:03;9.63;;;8.47;;
4756;SDS011;2392;52.578;13.426;2022-12-24T04:18:32;8.90;;;7.40;;
4756;SDS011;2392;52.578;13.426;2022-12-24T04:20:59;10.10;;;8.17;;
4756;SDS011;2392;52.578;13.426;2022-12-24T04:23:30;8.17;;;7.37;;
4756;SDS011;2392;52.578;13.426;2022-12-24T04:25:57;9.23;;;7.50;;
4756;SDS011;2392;52.578;13.426;2022-12-24T04:28:24;9.90;;;7.80;;
4756;SDS011;2392;52.578;13.426;2022-12-24T04:30:56;8.40;;;7.30;;
4756;SDS011;2392;52.578;13.426;2022-12-24T04:33:24;9.17;;;7.53;;
4756;SDS011;2392;52.578;13.426;2022-12-24T04:35:51;8.93;;;7.97;;
4756;SDS011;2392;52.578;13.426;2022-12-24T04:38:18;9.60;;;7.67;;
4756;SDS011;2392;52.578;13.426;2022-12-24T04:40:47;11.57;;;7.63;;
4756;SDS011;2392;52.578;13.426;2022-12-24T04:43:14;8.87;;;7.43;;
4756;SDS011;2392;52.578;13.426;2022-12-24T04:45:41;9.60;;;7.87;;
4756;SDS011;2392;52.578;13.426;2022-12-24T04:48:08;8.70;;;7.80;;
4756;SDS011;2392;52.578;13.426;2022-12-24T04:50:35;8.07;;;7.17;;
4756;SDS011;2392;52.578;13.426;2022-12-24T04:53:02;10.13;;;7.20;;
4756;SDS011;2392;52.578;13.426;2022-12-24T04:55:29;10.60;;;7.77;;
4756;SDS011;2392;52.578;13.426;2022-12-24T04:57:57;10.97;;;7.80;;
4756;SDS011;2392;52.578;13.426;2022-12-24T05:00:24;8.33;;;7.53;;
4756;SDS011;2392;52.578;13.426;2022-12-24T05:02:51;10.13;;;7.70;;
4756;SDS011;2392;52.578;13.426;2022-12-24T05:05:18;8.17;;;7.03;;
4756;SDS011;2392;52.578;13.426;2022-12-24T05:07:45;8.67;;;7.77;;
4756;SDS011;2392;52.578;13.426;2022-12-24T05:10:12;7.83;;;7.00;;
4756;SDS011;2392;52.578;13.426;2022-12-24T05:12:39;10.77;;;8.13;;
4756;SDS011;2392;52.578;13.426;2022-12-24T05:15:08;9.30;;;7.90;;
4756;SDS011;2392;52.578;13.426;2022-12-24T05:17:35;9.33;;;7.37;;
4756;SDS011;2392;52.578;13.426;2022-12-24T05:20:02;7.70;;;6.93;;
4756;SDS011;2392;52.578;13.426;2022-12-24T05:22:29;9.80;;;7.77;;
4756;SDS011;2392;52.578;13.426;2022-12-24T05:25:13;9.00;;;7.60;;
4756;SDS011;2392;52.578;13.426;2022-12-24T05:27:58;9.20;;;7.93;;
4756;SDS011;2392;52.578;13.426;2022-12-24T05:30:26;9.97;;;7.30;;
4756;SDS011;2392;52.578;13.426;2022-12-24T05:32:53;10.73;;;8.10;;
4756;SDS011;2392;52.578;13.426;2022-12-24T05:35:20;13.93;;;7.67;;
4756;SDS011;2392;52.578;13.426;2022-12-24T05:37:47;9.33;;;7.97;;
4756;SDS011;2392;52.578;13.426;2022-12-24T05:40:14;8.80;;;7.43;;
4756;SDS011;2392;52.578;13.426;2022-12-24T05:42:41;8.53;;;6.97;;
4756;SDS011;2392;52.578;13.426;2022-12-24T05:45:08;8.87;;;7.13;;
4756;SDS011;2392;52.578;13.426;2022-12-24T05:47:37;10.77;;;7.00;;
4756;SDS011;2392;52.578;13.426;2022-12-24T05:50:04;8.17;;;6.70;;
4756;SDS011;2392;52.578;13.426;2022-12-24T05:52:32;9.90;;;7.27;;
4756;SDS011;2392;52.578;13.426;2022-12-24T05:54:59;8.73;;;6.90;;
4756;SDS011;2392;52.578;13.426;2022-12-24T05:57:26;8.93;;;7.40;;
4756;SDS011;2392;52.578;13.426;2022-12-24T05:59:53;9.43;;;8.00;;
4756;SDS011;2392;52.578;13.426;2022-12-24T06:02:19;10.03;;;7.47;;
4756;SDS011;2392;52.578;13.426;2022-12-24T06:04:48;9.27;;;7.37;;
4756;SDS011;2392;52.578;13.426;2022-12-24T06:07:15;10.20;;;7.70;;
4756;SDS011;2392;52.578;13.426;2022-12-24T06:09:42;9.90;;;7.27;;
4756;SDS011;2392;52.578;13.426;2022-12-24T06:12:09;9.67;;;7.47;;
4756;SDS011;2392;52.578;13.426;2022-12-24T06:14:36;9.10;;;8.20;;
4756;SDS011;2392;52.578;13.426;2022-12-24T06:17:02;9.63;;;8.00;;
4756;SDS011;2392;52.578;13.426;2022-12-24T06:19:29;8.87;;;7.70;;
4756;SDS011;2392;52.578;13.426;2022-12-24T06:21:58;10.70;;;7.70;;
4756;SDS011;2392;52.578;13.426;2022-12-24T06:24:25;11.50;;;8.43;;
4756;SDS011;2392;52.578;13.426;2022-12-24T06:26:52;11.13;;;8.07;;
4756;SDS011;2392;52.578;13.426;2022-12-24T06:29:19;10.00;;;7.70;;
4756;SDS011;2392;52.578;13.426;2022-12-24T06:31:45;9.80;;;7.73;;
4756;SDS011;2392;52.578;13.426;2022-12-24T06:34:12;11.57;;;8.10;;
4756;SDS011;2392;52.578;13.426;2022-12-24T06:36:39;11.03;;;7.57;;
4756;SDS011;2392;52.578;13.426;2022-12-24T06:39:08;11.00;;;7.43;;
4756;SDS011;2392;52.578;13.426;2022-12-24T06:41:35;11.83;;;8.20;;
4756;SDS011;2392;52.578;13.426;2022-12-24T06:44:02;13.57;;;8.57;;
4756;SDS011;2392;52.578;13.426;2022-12-24T06:46:29;9.70;;;7.40;;
4756;SDS011;2392;52.578;13.426;2022-12-24T06:48:56;11.40;;;8.70;;
4756;SDS011;2392;52.578;13.426;2022-12-24T06:51:23;10.67;;;8.30;;
4756;SDS011;2392;52.578;13.426;2022-12-24T06:53:50;11.60;;;8.20;;
4756;SDS011;2392;52.578;13.426;2022-12-24T06:56:19;11.03;;;8.17;;
4756;SDS011;2392;52.578;13.426;2022-12-24T06:58:46;12.73;;;9.30;;
4756;SDS011;2392;52.578;13.426;2022-12-24T07:01:14;10.97;;;8.00;;
4756;SDS011;2392;52.578;13.426;2022-12-24T07:03:43;11.70;;;8.60;;
4756;SDS011;2392;52.578;13.426;2022-12-24T07:06:13;10.50;;;8.10;;
4756;SDS011;2392;52.578;13.426;2022-12-24T07:08:42;11.80;;;8.60;;
4756;SDS011;2392;52.578;13.426;2022-12-24T07:11:09;9.47;;;8.27;;
4756;SDS011;2392;52.578;13.426;2022-12-24T07:13:38;11.67;;;8.87;;
4756;SDS011;2392;52.578;13.426;2022-12-24T07:16:05;13.70;;;9.80;;
4756;SDS011;2392;52.578;13.426;2022-12-24T07:18:32;11.20;;;8.27;;
4756;SDS011;2392;52.578;13.426;2022-12-24T07:20:59;10.90;;;8.20;;
4756;SDS011;2392;52.578;13.426;2022-12-24T07:23:28;11.70;;;8.93;;
4756;SDS011;2392;52.578;13.426;2022-12-24T07:25:58;13.83;;;8.53;;
4756;SDS011;2392;52.578;13.426;2022-12-24T07:28:26;11.00;;;8.20;;
4756;SDS011;2392;52.578;13.426;2022-12-24T07:30:55;12.20;;;8.17;;
4756;SDS011;2392;52.578;13.426;2022-12-24T07:33:22;12.20;;;8.50;;
4756;SDS011;2392;52.578;13.426;2022-12-24T07:35:56;14.70;;;8.63;;
4756;SDS011;2392;52.578;13.426;2022-12-24T07:38:24;18.67;;;12.90;;
4756;SDS011;2392;52.578;13.426;2022-12-24T07:40:51;12.03;;;9.40;;
4756;SDS011;2392;52.578;13.426;2022-12-24T07:43:18;11.90;;;9.70;;
4756;SDS011;2392;52.578;13.426;2022-12-24T07:45:45;16.20;;;9.43;;
4756;SDS011;2392;52.578;13.426;2022-12-24T07:48:13;13.33;;;10.10;;
4756;SDS011;2392;52.578;13.426;2022-12-24T07:50:40;13.07;;;9.67;;
4756;SDS011;2392;52.578;13.426;2022-12-24T07:53:07;13.63;;;10.60;;
4756;SDS011;2392;52.578;13.426;2022-12-24T07:55:34;16.10;;;10.70;;
4756;SDS011;2392;52.578;13.426;2022-12-24T07:58:01;17.43;;;12.80;;
4756;SDS011;2392;52.578;13.426;2022-12-24T08:00:28;16.13;;;11.70;;
4756;SDS011;2392;52.578;13.426;2022-12-24T08:02:56;12.97;;;10.87;;
4756;SDS011;2392;52.578;13.426;2022-12-24T08:05:25;16.73;;;12.10;;
4756;SDS011;2392;52.578;13.426;2022-12-24T08:07:52;24.77;;;10.00;;
4756;SDS011;2392;52.578;13.426;2022-12-24T08:10:20;14.40;;;10.77;;
4756;SDS011;2392;52.578;13.426;2022-12-24T08:12:47;13.60;;;9.57;;
4756;SDS011;2392;52.578;13.426;2022-12-24T08:15:14;13.83;;;9.97;;
4756;SDS011;2392;52.578;13.426;2022-12-24T08:17:41;12.93;;;10.23;;
4756;SDS011;2392;52.578;13.426;2022-12-24T08:20:09;13.57;;;11.23;;
4756;SDS011;2392;52.578;13.426;2022-12-24T08:22:38;13.87;;;9.83;;
4756;SDS011;2392;52.578;13.426;2022-12-24T08:25:05;13.90;;;10.23;;
4756;SDS011;2392;52.578;13.426;2022-12-24T08:27:35;13.77;;;9.80;;
4756;SDS011;2392;52.578;13.426;2022-12-24T08:30:02;15.03;;;10.07;;
4756;SDS011;2392;52.578;13.426;2022-12-24T08:32:29;13.97;;;10.93;;
4756;SDS011;2392;52.578;13.426;2022-12-24T08:34:56;14.73;;;9.97;;
4756;SDS011;2392;52.578;13.426;2022-12-24T08:37:23;16.23;;;10.97;;
4756;SDS011;2392;52.578;13.426;2022-12-24T08:39:52;17.73;;;11.47;;
4756;SDS011;2392;52.578;13.426;2022-12-24T08:42:18;11.37;;;9.23;;
4756;SDS011;2392;52.578;13.426;2022-12-24T08:44:46;11.33;;;10.13;;
4756;SDS011;2392;52.578;13.426;2022-12-24T08:47:12;12.97;;;9.77;;
4756;SDS011;2392;52.578;13.426;2022-12-24T08:49:39;11.10;;;9.53;;
4756;SDS011;2392;52.578;13.426;2022-12-24T08:52:06;11.23;;;9.00;;
4756;SDS011;2392;52.578;13.426;2022-12-24T08:54:33;15.20;;;10.83;;
4756;SDS011;2392;52.578;13.426;2022-12-24T08:57:02;14.17;;;10.27;;
4756;SDS011;2392;52.578;13.426;2022-12-24T08:59:29;10.57;;;9.47;;
4756;SDS011;2392;52.578;13.426;2022-12-24T09:01:56;13.90;;;10.70;;
4756;SDS011;2392;52.578;13.426;2022-12-24T09:04:23;13.47;;;10.00;;
4756;SDS011;2392;52.578;13.426;2022-12-24T09:06:50;13.93;;;9.90;;
4756;SDS011;2392;52.578;13.426;2022-12-24T09:09:17;12.00;;;9.97;;
4756;SDS011;2392;52.578;13.426;2022-12-24T09:11:44;12.23;;;9.70;;
4756;SDS011;2392;52.578;13.426;2022-12-24T09:14:12;12.97;;;10.37;;
4756;SDS011;2392;52.578;13.426;2022-12-24T09:16:39;13.50;;;10.57;;
4756;SDS011;2392;52.578;13.426;2022-12-24T09:19:06;15.17;;;11.07;;
4756;SDS011;2392;52.578;13.426;2022-12-24T09:21:33;13.93;;;11.13;;
4756;SDS011;2392;52.578;13.426;2022-12-24T09:24:02;16.70;;;10.83;;
4756;SDS011;2392;52.578;13.426;2022-12-24T09:26:29;17.50;;;10.90;;
4756;SDS011;2392;52.578;13.426;2022-12-24T09:29:00;12.13;;;9.97;;
4756;SDS011;2392;52.578;13.426;2022-12-24T09:31:29;14.50;;;10.10;;
4756;SDS011;2392;52.578;13.426;2022-12-24T09:33:56;13.40;;;10.07;;
4756;SDS011;2392;52.578;13.426;2022-12-24T09:36:23;13.07;;;10.13;;
4756;SDS011;2392;52.578;13.426;2022-12-24T09:38:51;13.77;;;10.20;;
4756;SDS011;2392;52.578;13.426;2022-12-24T09:41:23;13.33;;;9.80;;
4756;SDS011;2392;52.578;13.426;2022-12-24T09:44:00;15.30;;;9.83;;
4756;SDS011;2392;52.578;13.426;2022-12-24T09:46:35;18.13;;;11.60;;
4756;SDS011;2392;52.578;13.426;2022-12-24T09:49:08;12.60;;;9.97;;
4756;SDS011;2392;52.578;13.426;2022-12-24T09:51:40;15.90;;;11.67;;
4756;SDS011;2392;52.578;13.426;2022-12-24T09:54:12;15.23;;;10.50;;
4756;SDS011;2392;52.578;13.426;2022-12-24T09:56:43;13.23;;;9.50;;
4756;SDS011;2392;52.578;13.426;2022-12-24T09:59:12;13.20;;;10.43;;
4756;SDS011;2392;52.578;13.426;2022-12-24T10:01:42;15.60;;;11.70;;
4756;SDS011;2392;52.578;13.426;2022-12-24T10:04:10;14.70;;;9.77;;
4756;SDS011;2392;52.578;13.426;2022-12-24T10:06:42;15.03;;;10.07;;
4756;SDS011;2392;52.578;13.426;2022-12-24T10:09:16;13.93;;;9.90;;
4756;SDS011;2392;52.578;13.426;2022-12-24T10:11:53;14.80;;;10.67;;
4756;SDS011;2392;52.578;13.426;2022-12-24T10:14:30;15.13;;;11.40;;
4756;SDS011;2392;52.578;13.426;2022-12-24T10:17:19;15.20;;;11.23;;
4756;SDS011;2392;52.578;13.426;2022-12-24T10:19:58;14.13;;;10.10;;
4756;SDS011;2392;52.578;13.426;2022-12-24T10:22:39;13.10;;;9.43;;
4756;SDS011;2392;52.578;13.426;2022-12-24T10:25:17;12.87;;;10.40;;
4756;SDS011;2392;52.578;13.426;2022-12-24T10:27:49;15.43;;;11.40;;
4756;SDS011;2392;52.578;13.426;2022-12-24T10:30:18;18.50;;;11.30;;
4756;SDS011;2392;52.578;13.426;2022-12-24T10:32:49;15.83;;;12.13;;
4756;SDS011;2392;52.578;13.426;2022-12-24T10:35:19;18.00;;;12.50;;
4756;SDS011;2392;52.578;13.426;2022-12-24T10:37:49;14.30;;;10.73;;
4756;SDS011;2392;52.578;13.426;2022-12-24T10:40:22;18.27;;;12.17;;
4756;SDS011;2392;52.578;13.426;2022-12-24T10:42:53;13.77;;;10.77;;
4756;SDS011;2392;52.578;13.426;2022-12-24T10:45:20;15.47;;;10.60;;
4756;SDS011;2392;52.578;13.426;2022-12-24T10:47:51;16.40;;;10.90;;
4756;SDS011;2392;52.578;13.426;2022-12-24T10:50:23;11.90;;;9.27;;
4756;SDS011;2392;52.578;13.426;2022-12-24T10:53:03;14.00;;;10.47;;
4756;SDS011;2392;52.578;13.426;2022-12-24T10:55:49;13.30;;;10.30;;
4756;SDS011;2392;52.578;13.426;2022-12-24T10:58:26;13.30;;;10.40;;
4756;SDS011;2392;52.578;13.426;2022-12-24T11:00:53;18.20;;;12.03;;
4756;SDS011;2392;52.578;13.426;2022-12-24T11:03:23;15.57;;;12.13;;
4756;SDS011;2392;52.578;13.426;2022-12-24T11:05:59;16.10;;;11.27;;
4756;SDS011;2392;52.578;13.426;2022-12-24T11:08:28;18.20;;;11.03;;
4756;SDS011;2392;52.578;13.426;2022-12-24T11:10:55;18.27;;;12.47;;
4756;SDS011;2392;52.578;13.426;2022-12-24T11:13:24;17.83;;;12.20;;
4756;SDS011;2392;52.578;13.426;2022-12-24T11:16:03;18.40;;;11.53;;
4756;SDS011;2392;52.578;13.426;2022-12-24T11:18:35;15.00;;;10.80;;
4756;SDS011;2392;52.578;13.426;2022-12-24T11:21:03;13.87;;;10.40;;
4756;SDS011;2392;52.578;13.426;2022-12-24T11:23:31;20.67;;;12.83;;
4756;SDS011;2392;52.578;13.426;2022-12-24T11:25:58;14.80;;;11.93;;
4756;SDS011;2392;52.578;13.426;2022-12-24T11:28:26;16.57;;;11.80;;
4756;SDS011;2392;52.578;13.426;2022-12-24T11:30:57;16.37;;;12.93;;
4756;SDS011;2392;52.578;13.426;2022-12-24T11:33:27;15.60;;;10.90;;
4756;SDS011;2392;52.578;13.426;2022-12-24T11:36:03;16.10;;;12.37;;
4756;SDS011;2392;52.578;13.426;2022-12-24T11:38:32;14.20;;;11.33;;
4756;SDS011;2392;52.578;13.426;2022-12-24T11:41:01;14.30;;;10.97;;
4756;SDS011;2392;52.578;13.426;2022-12-24T11:43:34;14.70;;;11.50;;
4756;SDS011;2392;52.578;13.426;2022-12-24T11:46:12;16.07;;;12.07;;
4756;SDS011;2392;52.578;13.426;2022-12-24T11:48:41;13.27;;;10.40;;
4756;SDS011;2392;52.578;13.426;2022-12-24T11:51:19;13.83;;;11.70;;
4756;SDS011;2392;52.578;13.426;2022-12-24T11:53:48;14.57;;;9.93;;
4756;SDS011;2392;52.578;13.426;2022-12-24T11:56:23;9.77;;;8.73;;
4756;SDS011;2392;52.578;13.426;2022-12-24T11:58:57;13.23;;;10.03;;
4756;SDS011;2392;52.578;13.426;2022-12-24T12:01:29;11.73;;;9.43;;
4756;SDS011;2392;52.578;13.426;2022-12-24T12:03:59;11.63;;;10.43;;
4756;SDS011;2392;52.578;13.426;2022-12-24T12:06:31;12.67;;;10.70;;
4756;SDS011;2392;52.578;13.426;2022-12-24T12:09:04;11.83;;;10.37;;
4756;SDS011;2392;52.578;13.426;2022-12-24T12:11:37;11.13;;;9.50;;
4756;SDS011;2392;52.578;13.426;2022-12-24T12:14:05;12.33;;;9.57;;
4756;SDS011;2392;52.578;13.426;2022-12-24T12:16:39;11.90;;;9.80;;
4756;SDS011;2392;52.578;13.426;2022-12-24T12:19:30;16.63;;;9.90;;
4756;SDS011;2392;52.578;13.426;2022-12-24T12:22:06;12.17;;;10.10;;
4756;SDS011;2392;52.578;13.426;2022-12-24T12:24:42;11.70;;;8.73;;
4756;SDS011;2392;52.578;13.426;2022-12-24T12:27:15;11.27;;;9.40;;
4756;SDS011;2392;52.578;13.426;2022-12-24T12:29:48;12.17;;;10.27;;
4756;SDS011;2392;52.578;13.426;2022-12-24T12:32:22;12.70;;;8.93;;
4756;SDS011;2392;52.578;13.426;2022-12-24T12:34:58;13.43;;;10.03;;
4756;SDS011;2392;52.578;13.426;2022-12-24T12:37:33;13.57;;;10.60;;
4756;SDS011;2392;52.578;13.426;2022-12-24T12:40:05;13.97;;;9.70;;
4756;SDS011;2392;52.578;13.426;2022-12-24T12:42:38;13.43;;;9.30;;
4756;SDS011;2392;52.578;13.426;2022-12-24T12:45:18;10.30;;;9.20;;
4756;SDS011;2392;52.578;13.426;2022-12-24T12:48:07;11.40;;;9.20;;
4756;SDS011;2392;52.578;13.426;2022-12-24T12:50:59;14.03;;;9.47;;
4756;SDS011;2392;52.578;13.426;2022-12-24T12:53:36;13.30;;;9.47;;
4756;SDS011;2392;52.578;13.426;2022-12-24T12:56:13;10.70;;;8.63;;
4756;SDS011;2392;52.578;13.426;2022-12-24T12:58:49;11.80;;;8.23;;
4756;SDS011;2392;52.578;13.426;2022-12-24T13:01:20;12.00;;;9.17;;
4756;SDS011;2392;52.578;13.426;2022-12-24T13:04:01;11.93;;;9.00;;
4756;SDS011;2392;52.578;13.426;2022-12-24T13:07:15;10.50;;;8.60;;
4756;SDS011;2392;52.578;13.426;2022-12-24T13:10:15;10.63;;;8.70;;
4756;SDS011;2392;52.578;13.426;2022-12-24T13:13:02;11.67;;;9.10;;
4756;SDS011;2392;52.578;13.426;2022-12-24T13:15:55;10.43;;;9.13;;
4756;SDS011;2392;52.578;13.426;2022-12-24T13:18:50;10.40;;;8.30;;
4756;SDS011;2392;52.578;13.426;2022-12-24T13:21:26;13.73;;;8.63;;
4756;SDS011;2392;52.578;13.426;2022-12-24T13:24:03;8.20;;;7.30;;
4756;SDS011;2392;52.578;13.426;2022-12-24T13:26:33;10.20;;;7.43;;
4756;SDS011;2392;52.578;13.426;2022-12-24T13:31:58;9.47;;;7.90;;
4756;SDS011;2392;52.578;13.426;2022-12-24T13:35:18;10.73;;;8.23;;
4756;SDS011;2392;52.578;13.426;2022-12-24T13:44:23;9.60;;;8.10;;
4756;SDS011;2392;52.578;13.426;2022-12-24T13:46:57;9.57;;;7.93;;
4756;SDS011;2392;52.578;13.426;2022-12-24T13:49:45;10.40;;;8.60;;
4756;SDS011;2392;52.578;13.426;2022-12-24T13:52:16;16.83;;;8.63;;
4756;SDS011;2392;52.578;13.426;2022-12-24T13:54:49;8.30;;;7.23;;
4756;SDS011;2392;52.578;13.426;2022-12-24T13:57:36;11.73;;;7.80;;
4756;SDS011;2392;52.578;13.426;2022-12-24T14:00:07;10.83;;;8.90;;
4756;SDS011;2392;52.578;13.426;2022-12-24T14:02:52;12.60;;;8.30;;
4756;SDS011;2392;52.578;13.426;2022-12-24T14:05:24;20.17;;;8.50;;
4756;SDS011;2392;52.578;13.426;2022-12-24T14:07:56;11.33;;;7.97;;
4756;SDS011;2392;52.578;13.426;2022-12-24T14:10:26;14.23;;;8.60;;
4756;SDS011;2392;52.578;13.426;2022-12-24T14:12:58;13.50;;;8.40;;
4756;SDS011;2392;52.578;13.426;2022-12-24T14:18:28;13.80;;;7.30;;
4756;SDS011;2392;52.578;13.426;2022-12-24T14:20:59;12.73;;;7.30;;
4756;SDS011;2392;52.578;13.426;2022-12-24T14:23:32;13.63;;;7.40;;
4756;SDS011;2392;52.578;13.426;2022-12-24T14:26:08;10.90;;;6.20;;
4756;SDS011;2392;52.578;13.426;2022-12-24T14:28:42;13.30;;;6.63;;
4756;SDS011;2392;52.578;13.426;2022-12-24T14:31:13;12.80;;;7.60;;
4756;SDS011;2392;52.578;13.426;2022-12-24T14:33:41;14.30;;;6.83;;
4756;SDS011;2392;52.578;13.426;2022-12-24T14:36:09;13.53;;;6.27;;
4756;SDS011;2392;52.578;13.426;2022-12-24T14:38:39;8.63;;;6.33;;
4756;SDS011;2392;52.578;13.426;2022-12-24T14:41:13;15.20;;;5.90;;
4756;SDS011;2392;52.578;13.426;2022-12-24T14:44:00;15.80;;;5.73;;
4756;SDS011;2392;52.578;13.426;2022-12-24T14:46:37;10.40;;;5.77;;
4756;SDS011;2392;52.578;13.426;2022-12-24T14:49:12;18.53;;;6.43;;
4756;SDS011;2392;52.578;13.426;2022-12-24T14:51:49;14.60;;;6.00;;
4756;SDS011;2392;52.578;13.426;2022-12-24T14:54:33;13.47;;;6.30;;
4756;SDS011;2392;52.578;13.426;2022-12-24T14:57:18;29.43;;;6.60;;
4756;SDS011;2392;52.578;13.426;2022-12-24T14:59:50;19.83;;;6.43;;
4756;SDS011;2392;52.578;13.426;2022-12-24T15:02:37;14.50;;;5.23;;
4756;SDS011;2392;52.578;13.426;2022-12-24T15:05:10;13.77;;;5.53;;
4756;SDS011;2392;52.578;13.426;2022-12-24T15:07:40;13.77;;;6.27;;
4756;SDS011;2392;52.578;13.426;2022-12-24T15:10:22;17.97;;;6.97;;
4756;SDS011;2392;52.578;13.426;2022-12-24T15:12:53;19.17;;;7.30;;
4756;SDS011;2392;52.578;13.426;2022-12-24T15:15:22;13.73;;;5.90;;
4756;SDS011;2392;52.578;13.426;2022-12-24T15:17:50;16.00;;;6.20;;
4756;SDS011;2392;52.578;13.426;2022-12-24T15:20:18;16.43;;;5.97;;
4756;SDS011;2392;52.578;13.426;2022-12-24T15:22:49;17.77;;;5.40;;
4756;SDS011;2392;52.578;13.426;2022-12-24T15:25:19;18.00;;;6.00;;